Time;durP1;ratioP1;P1;durP2;ratioP2;P2;SDS_P1;SDS_P2;PMS_P1;PMS_P2;Temp;Humidity;BMP_temperature;BMP_pressure;BME280_temperature;BME280_humidity;BME280_pressure;Samples;Min_cycle;Max_cycle;Signal;HPM_P1;HPM_P2
2021/12/23 00:00:38;;;;;;;15.35;5.95;;;23.00;99.90;;;;;;5063185;28;20200;-76
2021/12/23 00:03:11;;;;;;;15.55;5.60;;;23.00;99.90;;;;;;5065253;28;20429;-76
2021/12/23 00:05:42;;;;;;;13.50;5.15;;;23.00;99.90;;;;;;5051549;28;20672;-76
2021/12/23 00:08:12;;;;;;;12.73;5.18;;;22.90;99.90;;;;;;5055847;28;20193;-76
2021/12/23 00:10:44;;;;;;;10.25;4.35;;;22.90;99.90;;;;;;5055523;28;20229;-76
2021/12/23 00:13:14;;;;;;;12.23;4.70;;;22.90;99.90;;;;;;5048132;28;20190;-76
2021/12/23 00:16:02;;;;;;;13.00;4.32;;;22.80;99.90;;;;;;5055651;28;20189;-76
2021/12/23 00:18:51;;;;;;;15.27;4.50;;;22.70;99.90;;;;;;5055267;28;20186;-77
2021/12/23 00:24:08;;;;;;;9.93;3.90;;;22.60;99.90;;;;;;5055335;28;20696;-76
2021/12/23 00:26:39;;;;;;;12.63;4.28;;;22.60;99.90;;;;;;5055479;28;20641;-76
2021/12/23 00:29:10;;;;;;;11.00;4.10;;;22.60;99.90;;;;;;5055364;28;20244;-76
2021/12/23 00:31:40;;;;;;;14.18;4.20;;;22.60;99.90;;;;;;5055023;28;20186;-77
2021/12/23 00:34:13;;;;;;;10.43;4.38;;;22.60;99.90;;;;;;5054273;28;20335;-78
2021/12/23 00:36:45;;;;;;;11.98;4.40;;;22.60;99.90;;;;;;5053737;28;20616;-76
2021/12/23 00:39:17;;;;;;;13.05;4.13;;;22.50;99.90;;;;;;5050598;28;20277;-76
2021/12/23 00:41:48;;;;;;;10.90;4.00;;;22.50;99.90;;;;;;5054835;28;20194;-76
2021/12/23 00:44:18;;;;;;;11.48;4.20;;;22.50;99.90;;;;;;5055023;28;20224;-76
2021/12/23 00:46:49;;;;;;;9.57;3.75;;;22.40;99.90;;;;;;5055112;28;20205;-76
2021/12/23 00:49:21;;;;;;;9.85;3.88;;;22.40;99.90;;;;;;5054788;28;20205;-76
2021/12/23 00:51:53;;;;;;;8.77;3.58;;;22.30;99.90;;;;;;5054859;28;20186;-76
2021/12/23 00:54:24;;;;;;;10.13;3.38;;;22.30;99.90;;;;;;5054138;28;20225;-76
2021/12/23 00:56:55;;;;;;;7.65;3.20;;;22.30;99.90;;;;;;5055078;28;20182;-77
2021/12/23 00:59:25;;;;;;;8.40;2.97;;;22.30;99.90;;;;;;5054789;28;20197;-76
2021/12/23 01:01:56;;;;;;;10.80;3.08;;;22.30;99.90;;;;;;5054871;28;20190;-76
2021/12/23 01:04:28;;;;;;;15.25;3.50;;;22.30;99.90;;;;;;5054580;28;20248;-77
2021/12/23 01:06:59;;;;;;;13.55;4.07;;;22.30;99.90;;;;;;5054907;28;20198;-78
2021/12/23 01:09:30;;;;;;;8.88;3.70;;;22.40;99.90;;;;;;5054656;28;20236;-78
2021/12/23 01:12:00;;;;;;;10.32;3.60;;;22.40;99.90;;;;;;5047247;28;20567;-78
2021/12/23 01:14:41;;;;;;;7.40;2.90;;;22.40;99.90;;;;;;5048272;28;20288;-78
2021/12/23 01:17:31;;;;;;;8.25;3.55;;;22.50;99.90;;;;;;5054553;28;20568;-79
2021/12/23 01:20:04;;;;;;;8.88;3.33;;;22.60;99.90;;;;;;5048272;28;20189;-79
2021/12/23 01:22:34;;;;;;;8.80;3.30;;;22.70;99.90;;;;;;5054706;28;20225;-78
2021/12/23 01:25:05;;;;;;;8.38;4.30;;;22.80;99.90;;;;;;5054539;28;20214;-77
2021/12/23 01:27:36;;;;;;;11.88;4.43;;;22.90;99.90;;;;;;5054348;28;20190;-79
2021/12/23 01:30:07;;;;;;;16.02;5.75;;;23.00;99.90;;;;;;5054622;28;20201;-77
2021/12/23 01:32:37;;;;;;;17.35;6.72;;;23.20;99.90;;;;;;5054236;28;20185;-79
2021/12/23 01:35:11;;;;;;;21.17;6.93;;;23.40;99.90;;;;;;5054467;28;20196;-78
2021/12/23 01:37:42;;;;;;;17.63;6.35;;;23.50;99.90;;;;;;5054426;28;20247;-78
2021/12/23 01:40:14;;;;;;;24.45;7.50;;;23.50;99.90;;;;;;5054445;28;20197;-78
2021/12/23 01:42:45;;;;;;;20.83;6.97;;;23.80;99.90;;;;;;5054217;28;20186;-79
2021/12/23 01:45:18;;;;;;;19.55;6.13;;;24.00;99.90;;;;;;5052780;28;20598;-79
2021/12/23 01:47:50;;;;;;;20.50;6.47;;;24.10;99.90;;;;;;5055501;28;20197;-78
2021/12/23 01:50:26;;;;;;;20.08;6.30;;;24.10;99.90;;;;;;5054066;28;20263;-79
2021/12/23 01:52:58;;;;;;;22.33;6.32;;;24.20;99.90;;;;;;5050785;28;20228;-79
2021/12/23 01:55:29;;;;;;;21.38;6.30;;;24.50;99.90;;;;;;5054122;28;20201;-77
2021/12/23 01:58:01;;;;;;;21.10;6.53;;;24.80;99.90;;;;;;5053705;28;20255;-78
2021/12/23 02:00:35;;;;;;;18.05;6.25;;;25.00;99.90;;;;;;5046162;28;20205;-77
2021/12/23 02:03:07;;;;;;;22.80;6.05;;;25.00;99.90;;;;;;5054351;28;20271;-78
2021/12/23 02:05:40;;;;;;;20.67;5.70;;;24.80;99.90;;;;;;5053957;28;20233;-77
2021/12/23 02:08:11;;;;;;;15.98;5.57;;;24.70;99.90;;;;;;5053605;28;20197;-77
2021/12/23 02:10:44;;;;;;;17.05;5.53;;;24.70;99.90;;;;;;5053815;28;20586;-77
2021/12/23 02:13:14;;;;;;;18.92;5.97;;;24.90;99.90;;;;;;5045300;28;20190;-77
2021/12/23 02:15:45;;;;;;;15.93;5.47;;;25.20;99.90;;;;;;5053158;28;20186;-80
2021/12/23 02:18:16;;;;;;;15.98;5.28;;;25.30;99.90;;;;;;5045211;28;20181;-76
2021/12/23 02:20:49;;;;;;;18.70;5.20;;;25.40;99.90;;;;;;5053640;28;20235;-77
2021/12/23 02:23:19;;;;;;;17.58;5.65;;;25.40;99.90;;;;;;5044228;28;20190;-77
2021/12/23 02:25:50;;;;;;;14.77;6.15;;;25.30;99.90;;;;;;5052041;28;20578;-77
2021/12/23 02:28:22;;;;;;;16.00;6.25;;;25.40;99.90;;;;;;5058720;28;20273;-76
2021/12/23 02:30:53;;;;;;;17.77;6.38;;;25.60;99.90;;;;;;5049353;28;20182;-77
2021/12/23 02:33:26;;;;;;;18.88;6.47;;;25.80;99.90;;;;;;5053079;28;20257;-76
2021/12/23 02:36:00;;;;;;;17.40;6.15;;;25.80;99.90;;;;;;5053060;28;20599;-76
2021/12/23 02:38:31;;;;;;;15.13;6.22;;;25.90;99.90;;;;;;5045701;28;20197;-76
2021/12/23 02:41:02;;;;;;;16.30;6.35;;;25.90;99.90;;;;;;5052675;28;20198;-76
2021/12/23 02:43:32;;;;;;;18.63;6.53;;;25.90;99.90;;;;;;5044846;28;20188;-76
2021/12/23 02:46:03;;;;;;;15.63;6.13;;;26.00;99.90;;;;;;5052485;28;20214;-77
2021/12/23 02:48:35;;;;;;;16.33;6.30;;;25.90;99.90;;;;;;5045020;28;20190;-76
2021/12/23 02:51:09;;;;;;;14.20;5.95;;;25.70;99.90;;;;;;5052962;28;20204;-76
2021/12/23 02:53:40;;;;;;;15.50;6.53;;;25.60;99.90;;;;;;5049185;28;20221;-76
2021/12/23 02:56:14;;;;;;;14.23;6.85;;;25.80;99.90;;;;;;5051885;28;20201;-76
2021/12/23 02:58:46;;;;;;;15.88;6.30;;;25.80;99.90;;;;;;5052623;28;20216;-76
2021/12/23 03:01:18;;;;;;;16.05;6.32;;;25.80;99.90;;;;;;5050582;28;20269;-76
2021/12/23 03:03:48;;;;;;;16.80;6.70;;;25.90;99.90;;;;;;5049354;28;20205;-76
2021/12/23 03:06:22;;;;;;;16.30;6.75;;;25.80;99.90;;;;;;5051610;28;20217;-75
2021/12/23 03:08:54;;;;;;;13.25;6.75;;;25.80;99.90;;;;;;5052966;28;20196;-75
2021/12/23 03:11:27;;;;;;;13.75;6.55;;;25.90;99.90;;;;;;5052402;28;20229;-75
2021/12/23 03:14:00;;;;;;;16.30;6.40;;;26.00;99.90;;;;;;5060011;28;20197;-76
2021/12/23 03:16:35;;;;;;;13.15;6.15;;;26.20;99.90;;;;;;5048338;28;20200;-75
2021/12/23 03:19:08;;;;;;;16.02;6.18;;;26.30;99.90;;;;;;5047332;28;20189;-75
2021/12/23 03:21:40;;;;;;;13.45;6.00;;;26.40;99.90;;;;;;5052601;28;20216;-75
2021/12/23 03:24:11;;;;;;;15.75;6.18;;;26.60;99.90;;;;;;5052501;28;20193;-76
2021/12/23 03:26:42;;;;;;;12.25;6.20;;;26.60;99.90;;;;;;5056377;28;20193;-76
2021/12/23 03:29:14;;;;;;;15.30;5.13;;;26.60;99.90;;;;;;5056522;28;20189;-76
2021/12/23 03:31:45;;;;;;;15.95;5.43;;;26.60;99.90;;;;;;5052782;28;20204;-76
2021/12/23 03:34:15;;;;;;;17.80;4.60;;;26.50;99.90;;;;;;5057636;28;20193;-76
2021/12/23 03:36:48;;;;;;;20.35;4.70;;;26.60;99.90;;;;;;5058632;28;20212;-76
2021/12/23 03:39:19;;;;;;;13.23;4.25;;;26.50;99.90;;;;;;5053280;28;20612;-76
2021/12/23 03:41:50;;;;;;;14.10;4.38;;;26.60;99.90;;;;;;5055565;28;20189;-76
2021/12/23 03:44:21;;;;;;;17.23;4.68;;;26.60;99.90;;;;;;5064281;28;20193;-76
2021/12/23 03:46:54;;;;;;;14.38;3.90;;;26.80;99.90;;;;;;5051550;28;20224;-76
2021/12/23 03:49:25;;;;;;;17.08;4.18;;;26.70;99.90;;;;;;5056285;28;20194;-77
2021/12/23 03:51:57;;;;;;;14.60;4.05;;;26.50;99.90;;;;;;5055328;28;20238;-75
2021/12/23 03:54:28;;;;;;;14.07;3.80;;;26.50;99.90;;;;;;5056376;28;20202;-75
2021/12/23 03:56:59;;;;;;;15.65;3.85;;;26.50;99.90;;;;;;5055821;28;20190;-76
2021/12/23 03:59:29;;;;;;;17.00;4.03;;;26.30;99.90;;;;;;5056079;28;20194;-76
2021/12/23 04:02:00;;;;;;;17.60;3.85;;;26.20;99.90;;;;;;5049876;28;20186;-75
2021/12/23 04:04:31;;;;;;;17.83;3.88;;;26.30;99.90;;;;;;5055951;28;20201;-75
2021/12/23 04:07:04;;;;;;;15.55;3.63;;;26.50;99.90;;;;;;5055515;28;20616;-75
2021/12/23 04:09:34;;;;;;;14.82;4.03;;;26.40;99.90;;;;;;5054412;28;20237;-76
2021/12/23 04:12:05;;;;;;;11.57;3.78;;;26.20;99.90;;;;;;5058371;28;20607;-77
2021/12/23 04:14:36;;;;;;;16.08;3.88;;;26.10;99.90;;;;;;5052107;28;20243;-76
2021/12/23 04:17:06;;;;;;;18.02;3.72;;;26.30;99.90;;;;;;5055186;28;20198;-76
2021/12/23 04:19:37;;;;;;;18.27;3.70;;;26.20;99.90;;;;;;5054980;28;20235;-75
2021/12/23 04:22:10;;;;;;;10.95;3.40;;;26.10;99.90;;;;;;5055443;28;20197;-76
2021/12/23 04:24:41;;;;;;;16.02;3.90;;;26.10;99.90;;;;;;5055084;28;20181;-75
2021/12/23 04:27:12;;;;;;;14.95;4.10;;;26.00;99.90;;;;;;5052743;28;20669;-75
2021/12/23 04:29:43;;;;;;;19.77;4.13;;;26.20;99.90;;;;;;5055668;28;20236;-75
2021/12/23 04:32:13;;;;;;;22.05;4.40;;;26.30;99.90;;;;;;5048649;28;20248;-75
2021/12/23 04:34:44;;;;;;;13.30;3.55;;;26.20;99.90;;;;;;5054574;28;20263;-75
2021/12/23 04:37:16;;;;;;;17.52;3.80;;;26.30;99.90;;;;;;5046941;28;20194;-75
2021/12/23 04:39:47;;;;;;;14.68;3.58;;;26.10;99.90;;;;;;5043108;28;20255;-75
2021/12/23 04:42:18;;;;;;;16.02;3.90;;;26.00;99.90;;;;;;5054574;28;20206;-76
2021/12/23 04:44:48;;;;;;;16.48;3.55;;;26.00;99.90;;;;;;5043729;28;20185;-75
2021/12/23 04:47:19;;;;;;;18.33;4.55;;;25.90;99.90;;;;;;5053592;28;20199;-75
2021/12/23 04:49:50;;;;;;;14.60;3.85;;;25.80;99.90;;;;;;5053970;28;20549;-75
2021/12/23 04:52:22;;;;;;;15.57;4.40;;;25.60;99.90;;;;;;5049968;28;20241;-75
2021/12/23 04:54:53;;;;;;;17.73;4.20;;;25.60;99.90;;;;;;5039914;28;20202;-76
2021/12/23 04:57:24;;;;;;;15.88;3.97;;;25.40;99.90;;;;;;5052805;28;20193;-75
2021/12/23 04:59:54;;;;;;;16.90;3.90;;;25.40;99.90;;;;;;5055286;28;20194;-75
2021/12/23 05:02:25;;;;;;;15.23;3.63;;;25.30;99.90;;;;;;5054716;28;20198;-75
2021/12/23 05:04:56;;;;;;;15.98;3.78;;;25.30;99.90;;;;;;5053111;28;20193;-75
2021/12/23 05:07:29;;;;;;;17.77;4.35;;;25.30;99.90;;;;;;5049589;28;20664;-75
2021/12/23 05:09:59;;;;;;;15.60;3.70;;;25.30;99.90;;;;;;5058769;28;20243;-75
2021/12/23 05:12:30;;;;;;;17.38;4.03;;;25.30;99.90;;;;;;5063370;28;20656;-75
2021/12/23 05:15:01;;;;;;;14.57;4.10;;;25.30;99.90;;;;;;5054724;28;20204;-75
2021/12/23 05:17:31;;;;;;;19.20;4.43;;;25.30;99.90;;;;;;5054899;28;20193;-75
2021/12/23 05:20:02;;;;;;;15.60;4.00;;;25.20;99.90;;;;;;5053807;28;20547;-75
2021/12/23 05:22:35;;;;;;;14.98;4.20;;;25.30;99.90;;;;;;5062140;28;20220;-75
2021/12/23 05:25:06;;;;;;;20.40;4.10;;;25.30;99.90;;;;;;5064483;28;20625;-75
2021/12/23 05:27:38;;;;;;;17.75;3.97;;;25.20;99.90;;;;;;5053980;28;20186;-75
2021/12/23 05:30:10;;;;;;;14.68;4.10;;;25.20;99.90;;;;;;5061805;28;20638;-76
2021/12/23 05:32:41;;;;;;;18.85;4.18;;;25.20;99.90;;;;;;5046963;28;20259;-75
2021/12/23 05:35:14;;;;;;;14.07;4.03;;;25.20;99.90;;;;;;5052660;28;20194;-75
2021/12/23 05:37:47;;;;;;;19.05;4.72;;;25.20;99.90;;;;;;5035199;28;20201;-75
2021/12/23 05:40:19;;;;;;;18.27;4.30;;;25.10;99.90;;;;;;5048808;28;20186;-75
2021/12/23 05:42:50;;;;;;;21.10;4.85;;;25.20;99.90;;;;;;5053801;28;20239;-76
2021/12/23 05:45:22;;;;;;;19.52;4.55;;;25.20;99.90;;;;;;5053897;28;20209;-76
2021/12/23 05:47:53;;;;;;;19.27;4.50;;;25.10;99.90;;;;;;5052622;28;20194;-75
2021/12/23 05:50:25;;;;;;;17.67;4.60;;;25.10;99.90;;;;;;5053912;28;20189;-74
2021/12/23 05:52:58;;;;;;;19.02;4.07;;;25.10;99.90;;;;;;5050402;28;20308;-78
2021/12/23 05:55:29;;;;;;;11.90;3.70;;;25.10;99.90;;;;;;5053660;28;20653;-75
2021/12/23 05:57:59;;;;;;;14.63;3.60;;;25.00;99.90;;;;;;5053105;28;20190;-75
2021/12/23 06:00:33;;;;;;;14.48;3.47;;;25.00;99.90;;;;;;5051582;28;20252;-74
2021/12/23 06:03:05;;;;;;;13.95;3.17;;;25.00;99.90;;;;;;5055297;28;20280;-76
2021/12/23 06:05:36;;;;;;;14.57;3.47;;;24.90;99.90;;;;;;5054722;28;20707;-76
2021/12/23 06:08:10;;;;;;;13.68;3.65;;;24.80;99.90;;;;;;5051681;28;20220;-75
2021/12/23 06:10:41;;;;;;;11.55;3.10;;;24.80;99.90;;;;;;5048219;28;20274;-75
2021/12/23 06:13:12;;;;;;;11.13;3.10;;;24.70;99.90;;;;;;5056241;28;20574;-75
2021/12/23 06:15:42;;;;;;;11.13;3.10;;;24.70;99.90;;;;;;5052930;28;20829;-74
2021/12/23 06:18:13;;;;;;;12.38;3.28;;;24.70;99.90;;;;;;5055926;28;20201;-75
2021/12/23 06:20:44;;;;;;;14.85;3.75;;;24.60;99.90;;;;;;5053141;28;20311;-75
2021/12/23 06:23:16;;;;;;;11.90;3.45;;;24.50;99.90;;;;;;5048838;28;20653;-76
2021/12/23 06:25:47;;;;;;;10.73;3.10;;;24.50;99.90;;;;;;5046291;28;20599;-75
2021/12/23 06:28:18;;;;;;;11.95;2.72;;;24.40;99.90;;;;;;5044694;28;20205;-75
2021/12/23 06:30:48;;;;;;;11.10;3.08;;;24.40;99.90;;;;;;5053266;28;20186;-75
2021/12/23 06:33:22;;;;;;;8.80;2.80;;;24.50;99.90;;;;;;5043797;28;20197;-75
2021/12/23 06:35:56;;;;;;;10.45;3.22;;;24.40;99.90;;;;;;5053248;28;20231;-75
2021/12/23 06:39:17;;;;;;;9.65;3.05;;;24.40;99.90;;;;;;5048521;28;20664;-77
2021/12/23 06:42:02;;;;;;;9.05;2.75;;;24.40;99.90;;;;;;5050358;28;20223;-76
2021/12/23 06:44:33;;;;;;;14.05;2.80;;;24.30;99.90;;;;;;5047963;28;20268;-75
2021/12/23 06:47:05;;;;;;;9.57;2.90;;;24.40;99.90;;;;;;5052865;28;20213;-76
2021/12/23 06:49:35;;;;;;;13.82;3.53;;;24.40;99.90;;;;;;5052414;28;20194;-75
2021/12/23 06:52:06;;;;;;;13.63;3.80;;;24.40;99.90;;;;;;5052026;28;20217;-75
2021/12/23 06:54:52;;;;;;;16.80;3.78;;;24.40;99.90;;;;;;5052863;28;20668;-76
2021/12/23 06:57:24;;;;;;;17.10;3.33;;;24.50;99.90;;;;;;5049970;28;20194;-76
2021/12/23 06:59:54;;;;;;;13.20;3.70;;;24.50;99.90;;;;;;5047899;28;20605;-75
2021/12/23 07:02:26;;;;;;;14.32;3.55;;;24.40;99.90;;;;;;5052806;28;20190;-75
2021/12/23 07:04:59;;;;;;;13.02;3.17;;;24.50;99.90;;;;;;5052824;28;20198;-76
2021/12/23 07:07:40;;;;;;;11.25;2.97;;;24.50;99.90;;;;;;5052038;28;20205;-75
2021/12/23 07:10:14;;;;;;;12.95;3.03;;;24.50;99.90;;;;;;5052151;28;20233;-75
2021/12/23 07:12:45;;;;;;;14.00;3.20;;;24.50;99.90;;;;;;5048757;28;20181;-75
2021/12/23 07:15:19;;;;;;;13.93;3.03;;;24.50;99.90;;;;;;5050456;28;20190;-75
2021/12/23 07:17:50;;;;;;;15.48;3.15;;;24.50;99.90;;;;;;5051197;28;20205;-76
2021/12/23 07:20:20;;;;;;;12.88;3.22;;;24.50;99.90;;;;;;5052632;28;20197;-76
2021/12/23 07:22:51;;;;;;;12.07;2.88;;;24.50;99.90;;;;;;5056278;28;20185;-75
2021/12/23 07:25:25;;;;;;;10.55;2.80;;;24.50;99.90;;;;;;5051509;28;20771;-76
2021/12/23 07:27:56;;;;;;;10.20;2.83;;;24.50;99.90;;;;;;5052596;28;20213;-75
2021/12/23 07:30:26;;;;;;;11.23;2.70;;;24.50;99.90;;;;;;5052186;28;20236;-75
2021/12/23 07:33:00;;;;;;;12.95;3.10;;;24.50;99.90;;;;;;5052558;28;20199;-75
2021/12/23 07:35:31;;;;;;;13.70;2.88;;;24.50;99.90;;;;;;5050846;28;20193;-75
2021/12/23 07:38:12;;;;;;;11.25;3.05;;;24.50;99.90;;;;;;5065146;28;20182;-75
2021/12/23 07:40:46;;;;;;;14.18;3.03;;;24.50;99.90;;;;;;5050707;28;20616;-76
2021/12/23 07:43:41;;;;;;;11.77;3.10;;;24.50;99.90;;;;;;5051728;28;20565;-75
2021/12/23 07:46:13;;;;;;;10.95;3.50;;;24.50;99.90;;;;;;5049733;28;20229;-76
2021/12/23 07:48:43;;;;;;;10.20;2.90;;;24.50;99.90;;;;;;5041382;28;20202;-76
2021/12/23 07:51:14;;;;;;;8.48;3.08;;;24.50;99.90;;;;;;5040068;28;20217;-76
2021/12/23 07:53:45;;;;;;;12.48;2.95;;;24.50;99.90;;;;;;5051287;28;20701;-76
2021/12/23 07:56:17;;;;;;;13.70;3.45;;;24.50;99.90;;;;;;5053033;28;20212;-75
2021/12/23 07:58:48;;;;;;;11.48;3.30;;;24.50;99.90;;;;;;5055957;28;20198;-75
2021/12/23 08:01:19;;;;;;;14.07;3.78;;;24.50;99.90;;;;;;5056297;28;20272;-76
2021/12/23 08:03:50;;;;;;;12.20;3.60;;;24.50;99.90;;;;;;5042658;28;20193;-76
2021/12/23 08:06:21;;;;;;;13.88;3.45;;;24.40;99.90;;;;;;5048541;28;20746;-75
2021/12/23 08:08:51;;;;;;;14.27;3.60;;;24.40;99.90;;;;;;5051485;28;20197;-75
2021/12/23 08:11:24;;;;;;;9.48;3.10;;;24.40;99.90;;;;;;5053749;28;20770;-75
2021/12/23 08:13:55;;;;;;;12.63;3.90;;;24.40;99.90;;;;;;5058572;28;20280;-76
2021/12/23 08:16:26;;;;;;;10.35;3.10;;;24.40;99.90;;;;;;5054827;28;20190;-76
2021/12/23 08:18:56;;;;;;;15.95;3.78;;;24.30;99.90;;;;;;5048824;28;20190;-75
2021/12/23 08:21:29;;;;;;;15.43;3.60;;;24.30;99.90;;;;;;5054761;28;20197;-75
2021/12/23 08:24:00;;;;;;;13.88;3.45;;;24.30;99.90;;;;;;5051386;28;20201;-75
2021/12/23 08:26:40;;;;;;;12.18;3.10;;;24.30;99.90;;;;;;5050449;28;20210;-75
2021/12/23 08:29:17;;;;;;;11.73;3.45;;;24.20;99.90;;;;;;5058238;28;20710;-75
2021/12/23 08:31:52;;;;;;;8.90;2.90;;;24.20;99.90;;;;;;5054984;28;20193;-76
2021/12/23 08:34:23;;;;;;;13.00;3.60;;;24.20;99.90;;;;;;5055772;28;20197;-75
2021/12/23 08:36:54;;;;;;;14.05;3.40;;;24.20;99.90;;;;;;5054373;28;20240;-74
2021/12/23 08:39:25;;;;;;;14.73;3.38;;;24.20;99.90;;;;;;5054539;28;20567;-75
2021/12/23 08:41:57;;;;;;;12.60;3.13;;;24.10;99.90;;;;;;5055444;28;20201;-75
2021/12/23 08:44:28;;;;;;;10.05;3.38;;;24.10;99.90;;;;;;5051289;28;20203;-75
2021/12/23 08:46:59;;;;;;;11.07;2.85;;;24.10;99.90;;;;;;5055297;28;20225;-75
2021/12/23 08:49:29;;;;;;;12.63;2.80;;;24.10;99.90;;;;;;5050498;28;20272;-75
2021/12/23 08:52:00;;;;;;;10.80;3.05;;;24.10;99.90;;;;;;5054049;28;20220;-76
2021/12/23 08:54:31;;;;;;;8.10;2.72;;;24.10;99.90;;;;;;5054774;28;20634;-76
2021/12/23 08:57:04;;;;;;;8.73;2.72;;;24.00;99.90;;;;;;5062941;28;20190;-75
2021/12/23 08:59:35;;;;;;;9.30;2.92;;;24.00;99.90;;;;;;5054280;28;20194;-75
2021/12/23 09:02:07;;;;;;;12.05;3.38;;;24.00;99.90;;;;;;5054917;28;20197;-75
2021/12/23 09:04:38;;;;;;;8.50;3.20;;;23.90;99.90;;;;;;5057058;28;20188;-75
2021/12/23 09:07:10;;;;;;;10.23;3.33;;;24.00;99.90;;;;;;5054714;28;20570;-75
2021/12/23 09:09:41;;;;;;;7.50;2.80;;;23.90;99.90;;;;;;5054516;28;20683;-76
2021/12/23 09:12:14;;;;;;;10.45;3.20;;;23.90;99.90;;;;;;5054311;28;20197;-75
2021/12/23 09:14:44;;;;;;;10.05;3.90;;;23.90;99.90;;;;;;5054288;28;20189;-75
2021/12/23 09:17:15;;;;;;;10.50;3.28;;;23.90;99.90;;;;;;5054169;28;20194;-75
2021/12/23 09:19:46;;;;;;;9.48;3.67;;;23.90;99.90;;;;;;5054295;28;20193;-76
2021/12/23 09:22:17;;;;;;;14.52;3.20;;;23.80;99.90;;;;;;5050795;28;20251;-76
2021/12/23 09:24:48;;;;;;;12.18;3.60;;;23.80;99.90;;;;;;5055028;28;20201;-75
2021/12/23 09:27:30;;;;;;;12.18;3.50;;;23.70;99.90;;;;;;5052806;28;20677;-76
2021/12/23 09:33:00;;;;;;;11.48;3.08;;;23.70;99.90;;;;;;5054035;28;20196;-76
2021/12/23 09:35:32;;;;;;;10.57;3.53;;;23.70;99.90;;;;;;5049510;28;20239;-75
2021/12/23 09:38:03;;;;;;;11.10;3.33;;;23.70;99.90;;;;;;5053299;28;20653;-76
2021/12/23 09:40:35;;;;;;;11.13;3.30;;;23.60;99.90;;;;;;5053826;28;20192;-75
2021/12/23 09:43:10;;;;;;;12.70;3.80;;;23.70;99.90;;;;;;5050580;28;20194;-76
2021/12/23 09:45:42;;;;;;;12.35;5.55;;;23.60;99.90;;;;;;5053735;28;20185;-75
2021/12/23 09:48:13;;;;;;;10.73;3.70;;;23.60;99.90;;;;;;5053949;28;20225;-75
2021/12/23 09:50:44;;;;;;;17.25;3.72;;;23.60;99.90;;;;;;5056346;28;20219;-76
2021/12/23 09:53:19;;;;;;;10.32;3.45;;;23.60;99.90;;;;;;5047336;28;20193;-76
2021/12/23 09:55:49;;;;;;;10.10;3.30;;;23.60;99.90;;;;;;5050368;28;20193;-75
2021/12/23 09:58:23;;;;;;;11.52;3.35;;;23.60;99.90;;;;;;5052695;28;20193;-76
2021/12/23 10:00:55;;;;;;;11.43;3.60;;;23.50;99.90;;;;;;5051328;28;20194;-75
2021/12/23 10:03:26;;;;;;;12.52;3.72;;;23.50;99.90;;;;;;5045859;28;20202;-75
2021/12/23 10:05:59;;;;;;;8.48;3.22;;;23.50;99.90;;;;;;5053706;28;20202;-75
2021/12/23 10:08:30;;;;;;;11.85;3.88;;;23.50;99.90;;;;;;5053513;28;20213;-75
2021/12/23 10:11:09;;;;;;;10.60;3.50;;;23.50;99.90;;;;;;5053188;28;20221;-75
2021/12/23 10:30:44;;;;;;;10.75;3.33;;;23.30;99.90;;;;;;5051299;28;20926;-75
2021/12/23 10:33:32;;;;;;;13.00;3.78;;;23.30;99.90;;;;;;5052653;28;20200;-75
2021/12/23 10:38:58;;;;;;;10.65;4.07;;;23.30;99.90;;;;;;5052071;28;20192;-74
2021/12/23 10:41:30;;;;;;;9.32;3.97;;;23.30;99.90;;;;;;5051995;28;20266;-74
2021/12/23 10:44:06;;;;;;;13.90;4.05;;;23.30;99.90;;;;;;5051849;28;20186;-75
2021/12/23 10:46:42;;;;;;;8.23;3.63;;;23.30;99.90;;;;;;5052281;28;20208;-76
2021/12/23 10:49:31;;;;;;;11.45;3.85;;;23.30;99.90;;;;;;5050301;28;20548;-74
2021/12/23 10:52:06;;;;;;;8.68;3.75;;;23.20;99.90;;;;;;5055545;28;20248;-75
2021/12/23 11:00:20;;;;;;;14.70;5.10;;;23.30;99.90;;;;;;5052642;28;20212;-75
2021/12/23 11:03:06;;;;;;;12.68;4.40;;;23.20;99.90;;;;;;5047842;28;20190;-76
2021/12/23 11:05:41;;;;;;;9.57;4.15;;;23.30;99.90;;;;;;5043821;28;20692;-75
2021/12/23 11:08:21;;;;;;;9.73;3.78;;;23.20;99.90;;;;;;5052595;28;20601;-75
2021/12/23 11:11:20;;;;;;;11.10;4.15;;;23.30;99.90;;;;;;5045087;28;20225;-75
2021/12/23 11:37:10;;;;;;;9.75;4.13;;;23.20;99.90;;;;;;5030015;28;20186;-75
2021/12/23 11:40:03;;;;;;;12.75;4.38;;;23.30;99.90;;;;;;5029753;28;20187;-76
2021/12/23 11:42:48;;;;;;;13.85;4.53;;;23.30;99.90;;;;;;5045889;28;20201;-75
2021/12/23 11:45:19;;;;;;;10.35;4.38;;;23.30;99.90;;;;;;5047090;28;20226;-77
2021/12/23 11:47:50;;;;;;;12.60;4.07;;;23.30;99.90;;;;;;5055143;28;20217;-75
2021/12/23 11:50:30;;;;;;;8.57;3.83;;;23.30;99.90;;;;;;5056361;28;20185;-75
2021/12/23 11:53:05;;;;;;;14.25;3.72;;;23.30;99.90;;;;;;5055485;28;20216;-76
2021/12/23 11:55:36;;;;;;;9.27;3.72;;;23.30;99.90;;;;;;5052498;28;20234;-76
2021/12/23 11:58:07;;;;;;;10.23;3.75;;;23.30;99.90;;;;;;5040380;28;20194;-76
2021/12/23 12:00:42;;;;;;;13.48;4.03;;;23.30;99.90;;;;;;5054049;28;20201;-75
2021/12/23 12:03:14;;;;;;;11.38;3.47;;;23.40;99.90;;;;;;5049261;28;20276;-76
2021/12/23 12:05:45;;;;;;;10.30;3.80;;;23.40;99.90;;;;;;5055835;28;20190;-76
2021/12/23 12:08:27;;;;;;;10.82;3.65;;;23.40;99.90;;;;;;5056160;28;20213;-76
2021/12/23 12:11:17;;;;;;;9.23;3.67;;;23.30;99.90;;;;;;5049146;28;20225;-75
2021/12/23 12:13:48;;;;;;;8.13;3.15;;;23.30;99.90;;;;;;5055492;28;20193;-75
2021/12/23 12:16:45;;;;;;;8.40;3.13;;;23.30;99.90;;;;;;5055529;28;20190;-76
2021/12/23 12:19:16;;;;;;;12.02;3.50;;;23.30;99.90;;;;;;5021122;28;20837;-76
2021/12/23 12:21:47;;;;;;;7.53;3.13;;;23.30;99.90;;;;;;5056045;28;20202;-75
2021/12/23 12:24:21;;;;;;;10.00;3.50;;;23.30;99.90;;;;;;5055884;28;20186;-75
2021/12/23 12:27:01;;;;;;;8.18;3.35;;;23.30;99.90;;;;;;5055682;28;20638;-75
2021/12/23 12:29:39;;;;;;;12.52;3.40;;;23.20;99.90;;;;;;5055653;28;20277;-75
2021/12/23 12:32:10;;;;;;;6.38;3.20;;;23.20;99.90;;;;;;5055577;28;20700;-76
2021/12/23 12:34:43;;;;;;;9.85;3.45;;;23.20;99.90;;;;;;5055320;28;20190;-75
2021/12/23 12:37:14;;;;;;;9.95;3.20;;;23.20;99.90;;;;;;5047438;28;20201;-75
2021/12/23 12:39:51;;;;;;;8.55;2.78;;;23.20;99.90;;;;;;5054713;28;20201;-75
2021/12/23 12:42:35;;;;;;;9.50;3.22;;;23.20;99.90;;;;;;5054954;28;20196;-76
2021/12/23 12:45:09;;;;;;;6.40;2.97;;;23.20;99.90;;;;;;5055342;28;20228;-75
2021/12/23 12:47:49;;;;;;;6.70;3.15;;;23.20;99.90;;;;;;5054746;28;20691;-75
2021/12/23 12:50:22;;;;;;;7.90;3.00;;;23.10;99.90;;;;;;5054137;28;20284;-76
2021/12/23 12:53:00;;;;;;;6.43;3.10;;;23.10;99.90;;;;;;5051848;28;20217;-75
2021/12/23 12:55:33;;;;;;;11.07;3.33;;;23.10;99.90;;;;;;5052203;28;20189;-75
2021/12/23 12:58:06;;;;;;;7.45;2.60;;;23.00;99.90;;;;;;5054763;28;20272;-75
2021/12/23 13:00:39;;;;;;;10.07;2.95;;;23.00;99.90;;;;;;5051776;28;22070;-75
2021/12/23 13:03:14;;;;;;;7.93;2.58;;;22.90;99.90;;;;;;5053989;28;20197;-75
2021/12/23 13:05:46;;;;;;;7.60;2.80;;;22.90;99.90;;;;;;5053888;28;20280;-75
2021/12/23 13:08:28;;;;;;;9.95;2.63;;;22.90;99.90;;;;;;5054738;28;20221;-76
2021/12/23 13:11:21;;;;;;;6.78;2.85;;;22.90;99.90;;;;;;5054569;28;20225;-75
2021/12/23 13:14:00;;;;;;;10.07;2.70;;;23.00;99.90;;;;;;5054724;28;20618;-76
2021/12/23 13:16:34;;;;;;;8.35;2.50;;;23.00;99.90;;;;;;5046694;28;20189;-75
2021/12/23 13:19:24;;;;;;;6.43;2.42;;;23.00;99.90;;;;;;5054214;28;20185;-76
2021/12/23 13:21:57;;;;;;;8.82;2.58;;;23.00;99.90;;;;;;5054646;28;20193;-76
2021/12/23 13:24:31;;;;;;;10.07;2.60;;;23.10;99.90;;;;;;5046374;28;20202;-75
2021/12/23 13:27:05;;;;;;;8.55;2.70;;;23.00;99.90;;;;;;5048469;28;20204;-75
2021/12/23 13:29:40;;;;;;;7.15;2.63;;;23.10;99.90;;;;;;5053313;28;20213;-76
2021/12/23 13:32:10;;;;;;;8.02;2.40;;;23.10;99.90;;;;;;5055028;28;20193;-75
2021/12/23 13:34:41;;;;;;;9.90;2.60;;;23.10;99.90;;;;;;5053644;28;20239;-76
2021/12/23 13:37:12;;;;;;;6.20;2.58;;;23.10;99.90;;;;;;5054177;28;20182;-75
2021/12/23 13:39:43;;;;;;;6.38;2.53;;;23.10;99.90;;;;;;5054505;28;20186;-75
2021/12/23 13:42:17;;;;;;;6.68;2.38;;;23.10;99.90;;;;;;5053135;28;20193;-74
2021/12/23 13:44:51;;;;;;;6.57;2.63;;;23.10;99.90;;;;;;5054077;28;20204;-74
2021/12/23 13:47:22;;;;;;;6.85;2.50;;;23.00;99.90;;;;;;5054049;28;20186;-74
2021/12/23 13:49:55;;;;;;;8.13;2.40;;;23.10;99.90;;;;;;5053919;28;20271;-74
2021/12/23 13:52:27;;;;;;;5.93;2.67;;;23.10;99.90;;;;;;5054065;28;20213;-73
2021/12/23 13:54:59;;;;;;;5.40;2.50;;;23.00;99.90;;;;;;5054087;28;20204;-74
2021/12/23 13:57:37;;;;;;;6.70;2.40;;;23.00;99.90;;;;;;5054645;28;20193;-73
2021/12/23 14:00:16;;;;;;;6.35;2.28;;;23.10;99.90;;;;;;5054176;28;20201;-75
2021/12/23 14:02:47;;;;;;;9.02;2.45;;;23.00;99.90;;;;;;5053978;28;20186;-74